SWA850 KPHX-KLAX
Flight info
| Callsign | SWA850 |
|---|---|
| Flight time | 1h 0m |
| Altitude | 30000 |
| Route | KEENS3 WLVRN ESTWD HLYWD1 |
| Aircraft | B738/M-SDE2E3FGHIRWXY/LB1 |
Departure
| Time | 2026-05-04 02:43 |
|---|---|
| Airport | Phoenix Sky Harbor International Airport (KPHX) |
Arrival
| Time | 2026-05-04 03:43 |
|---|---|
| Airport | Los Angeles International Airport (KLAX) |
| Time | Latitude | Longitude | Altitude | Speed | Heading |
|---|---|---|---|---|---|
| 2026-05-04 01:53 | 33.43402 | -111.99735 | 1123 ft | 0 kts | 78° |
| 2026-05-04 02:27 | 33.43399 | -111.99753 | 1121 ft | 4 kts | 95° |
| 2026-05-04 02:27 | 33.43409 | -111.99775 | 1117 ft | 4 kts | 160° |
| 2026-05-04 02:27 | 33.43428 | -111.99779 | 1116 ft | 1 kts | 180° |
| 2026-05-04 02:27 | 33.43432 | -111.99779 | 1117 ft | 0 kts | 180° |
| 2026-05-04 02:36 | 33.43408 | -111.99779 | 1117 ft | 7 kts | 179° |
| 2026-05-04 02:36 | 33.43358 | -111.99780 | 1119 ft | 7 kts | 180° |
| 2026-05-04 02:36 | 33.43350 | -111.99780 | 1119 ft | 0 kts | 180° |
| 2026-05-04 02:40 | 33.43298 | -111.99762 | 1117 ft | 13 kts | 133° |
| 2026-05-04 02:40 | 33.43284 | -111.99650 | 1121 ft | 14 kts | 89° |
| 2026-05-04 02:40 | 33.43286 | -111.99538 | 1116 ft | 14 kts | 88° |
| 2026-05-04 02:40 | 33.43288 | -111.99412 | 1123 ft | 19 kts | 88° |
| 2026-05-04 02:41 | 33.43281 | -111.99274 | 1118 ft | 9 kts | 117° |
| 2026-05-04 02:41 | 33.43225 | -111.99258 | 1120 ft | 9 kts | 200° |
| 2026-05-04 02:41 | 33.43207 | -111.99270 | 1121 ft | 1 kts | 212° |
| 2026-05-04 02:41 | 33.43189 | -111.99283 | 1117 ft | 5 kts | 213° |
| 2026-05-04 02:42 | 33.43151 | -111.99323 | 1119 ft | 10 kts | 222° |
| 2026-05-04 02:42 | 33.43103 | -111.99405 | 1122 ft | 14 kts | 261° |
| 2026-05-04 02:42 | 33.43101 | -111.99616 | 1116 ft | 56 kts | 270° |
| 2026-05-04 02:42 | 33.43100 | -112.00423 | 1124 ft | 135 kts | 270° |
| 2026-05-04 02:43 | 33.43080 | -112.01652 | 1801 ft | 139 kts | 263° |
| 2026-05-04 02:43 | 33.43053 | -112.02828 | 2557 ft | 150 kts | 265° |
| 2026-05-04 02:43 | 33.43037 | -112.04113 | 3174 ft | 161 kts | 265° |
| 2026-05-04 02:43 | 33.43002 | -112.05545 | 3690 ft | 182 kts | 263° |
| 2026-05-04 02:44 | 33.42946 | -112.07125 | 4235 ft | 192 kts | 262° |
| 2026-05-04 02:44 | 33.42708 | -112.08716 | 4694 ft | 204 kts | 243° |
| 2026-05-04 02:44 | 33.42047 | -112.10341 | 4922 ft | 232 kts | 244° |
| 2026-05-04 02:44 | 33.41380 | -112.12220 | 5373 ft | 252 kts | 246° |
| 2026-05-04 02:45 | 33.40736 | -112.14210 | 6189 ft | 261 kts | 246° |
| 2026-05-04 02:45 | 33.40096 | -112.16267 | 6752 ft | 265 kts | 247° |
| 2026-05-04 02:45 | 33.39465 | -112.18331 | 6958 ft | 262 kts | 248° |
| 2026-05-04 02:45 | 33.39175 | -112.20514 | 7006 ft | 273 kts | 268° |
| 2026-05-04 02:46 | 33.39422 | -112.22795 | 7022 ft | 279 kts | 275° |
| 2026-05-04 02:46 | 33.39770 | -112.25073 | 7015 ft | 278 kts | 276° |
| 2026-05-04 02:46 | 33.40126 | -112.27309 | 7025 ft | 276 kts | 276° |
| 2026-05-04 02:46 | 33.40485 | -112.29595 | 7017 ft | 276 kts | 276° |
| 2026-05-04 02:47 | 33.40829 | -112.31824 | 7299 ft | 277 kts | 276° |
| 2026-05-04 02:47 | 33.41177 | -112.34110 | 8113 ft | 280 kts | 276° |
| 2026-05-04 02:47 | 33.41524 | -112.36426 | 8961 ft | 286 kts | 276° |
| 2026-05-04 02:47 | 33.41877 | -112.38794 | 9767 ft | 292 kts | 276° |
| 2026-05-04 02:48 | 33.42232 | -112.41186 | 10540 ft | 297 kts | 276° |
| 2026-05-04 02:48 | 33.42604 | -112.43723 | 10772 ft | 323 kts | 276° |
| 2026-05-04 02:48 | 33.43008 | -112.46473 | 10966 ft | 346 kts | 276° |
| 2026-05-04 02:48 | 33.43439 | -112.49402 | 11140 ft | 369 kts | 276° |
| 2026-05-04 02:49 | 33.43897 | -112.52505 | 11314 ft | 387 kts | 277° |
| 2026-05-04 02:49 | 33.44370 | -112.55716 | 11777 ft | 395 kts | 277° |
| 2026-05-04 02:49 | 33.44849 | -112.58966 | 12517 ft | 394 kts | 277° |
| 2026-05-04 02:49 | 33.45189 | -112.62211 | 13211 ft | 393 kts | 270° |
| 2026-05-04 02:50 | 33.45239 | -112.65492 | 13793 ft | 395 kts | 266° |
| 2026-05-04 02:50 | 33.45202 | -112.68786 | 14357 ft | 396 kts | 266° |
| 2026-05-04 02:50 | 33.45187 | -112.72083 | 14959 ft | 397 kts | 267° |
| 2026-05-04 02:50 | 33.45210 | -112.75353 | 15551 ft | 397 kts | 268° |
| 2026-05-04 02:51 | 33.45270 | -112.78668 | 16124 ft | 399 kts | 271° |
| 2026-05-04 02:51 | 33.45845 | -112.81945 | 16630 ft | 408 kts | 287° |
| 2026-05-04 02:51 | 33.46945 | -112.85088 | 17191 ft | 410 kts | 289° |
| 2026-05-04 02:51 | 33.48080 | -112.88227 | 17690 ft | 412 kts | 289° |
| 2026-05-04 02:52 | 33.49219 | -112.91384 | 18145 ft | 414 kts | 289° |
| 2026-05-04 02:52 | 33.50353 | -112.94557 | 18578 ft | 415 kts | 289° |
| 2026-05-04 02:52 | 33.51481 | -112.97737 | 19011 ft | 415 kts | 289° |
| 2026-05-04 02:52 | 33.52604 | -113.00928 | 19431 ft | 416 kts | 288° |
| 2026-05-04 02:53 | 33.53726 | -113.04136 | 19836 ft | 417 kts | 288° |
| 2026-05-04 02:53 | 33.54847 | -113.07347 | 20240 ft | 418 kts | 288° |
| 2026-05-04 02:53 | 33.55969 | -113.10569 | 20636 ft | 420 kts | 288° |
| 2026-05-04 02:53 | 33.57095 | -113.13807 | 21037 ft | 421 kts | 288° |
| 2026-05-04 02:54 | 33.58224 | -113.17055 | 21445 ft | 422 kts | 288° |
| 2026-05-04 02:54 | 33.59353 | -113.20309 | 21865 ft | 423 kts | 288° |
| 2026-05-04 02:54 | 33.60484 | -113.23571 | 22269 ft | 424 kts | 288° |
| 2026-05-04 02:54 | 33.61619 | -113.26846 | 22657 ft | 425 kts | 288° |
| 2026-05-04 02:55 | 33.63895 | -113.33426 | 23400 ft | 428 kts | 288° |
| 2026-05-04 02:55 | 33.65038 | -113.36732 | 23725 ft | 429 kts | 288° |
| 2026-05-04 02:55 | 33.66183 | -113.40051 | 24038 ft | 430 kts | 288° |
| 2026-05-04 02:56 | 33.66938 | -113.42239 | 24244 ft | 430 kts | 288° |
| 2026-05-04 02:56 | 33.68083 | -113.45564 | 24555 ft | 430 kts | 288° |
| 2026-05-04 02:56 | 33.69225 | -113.48880 | 24839 ft | 430 kts | 288° |
| 2026-05-04 02:56 | 33.70367 | -113.52202 | 25109 ft | 431 kts | 288° |
| 2026-05-04 02:57 | 33.71512 | -113.55537 | 25363 ft | 432 kts | 288° |
| 2026-05-04 02:57 | 33.72656 | -113.58871 | 25604 ft | 432 kts | 288° |
| 2026-05-04 02:57 | 33.73798 | -113.62202 | 25875 ft | 431 kts | 288° |
| 2026-05-04 02:57 | 33.74934 | -113.65518 | 26228 ft | 428 kts | 288° |
| 2026-05-04 02:58 | 33.76061 | -113.68812 | 26635 ft | 424 kts | 288° |
| 2026-05-04 02:58 | 33.77178 | -113.72081 | 27025 ft | 421 kts | 287° |
| 2026-05-04 02:58 | 33.78284 | -113.75323 | 27476 ft | 417 kts | 287° |
| 2026-05-04 02:58 | 33.79380 | -113.78536 | 27910 ft | 413 kts | 287° |
| 2026-05-04 02:59 | 33.80450 | -113.81676 | 28350 ft | 410 kts | 287° |
| 2026-05-04 02:59 | 33.81541 | -113.84878 | 28776 ft | 407 kts | 287° |
| 2026-05-04 02:59 | 33.82595 | -113.87976 | 29190 ft | 404 kts | 287° |
| 2026-05-04 02:59 | 33.83658 | -113.91101 | 29613 ft | 402 kts | 286° |
| 2026-05-04 03:00 | 33.84713 | -113.94213 | 29721 ft | 403 kts | 286° |
| 2026-05-04 03:00 | 33.86826 | -114.00448 | 29732 ft | 402 kts | 286° |
| 2026-05-04 03:01 | 33.88936 | -114.06683 | 29739 ft | 403 kts | 286° |
| 2026-05-04 03:01 | 33.90896 | -114.12985 | 29725 ft | 398 kts | 279° |
| 2026-05-04 03:02 | 33.92004 | -114.19494 | 29729 ft | 397 kts | 277° |
| 2026-05-04 03:02 | 33.93047 | -114.26025 | 29717 ft | 397 kts | 277° |
| 2026-05-04 03:03 | 33.94120 | -114.32544 | 29723 ft | 397 kts | 277° |
| 2026-05-04 03:03 | 33.95213 | -114.39064 | 29710 ft | 397 kts | 277° |
| 2026-05-04 03:04 | 33.96308 | -114.45580 | 29721 ft | 397 kts | 277° |
| 2026-05-04 03:04 | 33.97400 | -114.52089 | 29711 ft | 397 kts | 277° |
| 2026-05-04 03:05 | 33.98490 | -114.58618 | 29710 ft | 397 kts | 277° |
| 2026-05-04 03:05 | 33.99575 | -114.65138 | 29712 ft | 397 kts | 277° |
| 2026-05-04 03:06 | 34.00650 | -114.71619 | 29713 ft | 397 kts | 277° |
| 2026-05-04 03:06 | 34.01730 | -114.78155 | 29714 ft | 398 kts | 277° |
| 2026-05-04 03:07 | 34.02808 | -114.84698 | 29717 ft | 397 kts | 277° |
| 2026-05-04 03:07 | 34.03879 | -114.91223 | 29716 ft | 397 kts | 276° |
| 2026-05-04 03:08 | 34.04948 | -114.97752 | 29728 ft | 396 kts | 276° |
| 2026-05-04 03:08 | 34.06011 | -115.04272 | 29721 ft | 396 kts | 276° |
| 2026-05-04 03:09 | 34.07074 | -115.10795 | 29732 ft | 396 kts | 276° |
| 2026-05-04 03:09 | 34.08131 | -115.17305 | 29726 ft | 395 kts | 276° |
| 2026-05-04 03:10 | 34.09176 | -115.23763 | 29730 ft | 395 kts | 276° |
| 2026-05-04 03:10 | 34.10226 | -115.30278 | 29733 ft | 396 kts | 276° |
| 2026-05-04 03:11 | 34.11274 | -115.36802 | 29745 ft | 396 kts | 276° |
| 2026-05-04 03:11 | 34.12317 | -115.43319 | 29742 ft | 396 kts | 276° |
| 2026-05-04 03:12 | 34.13358 | -115.49844 | 29748 ft | 396 kts | 276° |
| 2026-05-04 03:12 | 34.14395 | -115.56370 | 29753 ft | 396 kts | 276° |
| 2026-05-04 03:13 | 34.15431 | -115.62910 | 29758 ft | 397 kts | 276° |
| 2026-05-04 03:13 | 34.16291 | -115.69469 | 29756 ft | 392 kts | 268° |
| 2026-05-04 03:14 | 34.15760 | -115.75970 | 29768 ft | 389 kts | 261° |
| 2026-05-04 03:14 | 34.15092 | -115.82446 | 29797 ft | 388 kts | 262° |
| 2026-05-04 03:15 | 34.14455 | -115.88921 | 29822 ft | 389 kts | 262° |
| 2026-05-04 03:15 | 34.13826 | -115.95393 | 29841 ft | 389 kts | 262° |
| 2026-05-04 03:16 | 34.13195 | -116.01843 | 29862 ft | 389 kts | 262° |
| 2026-05-04 03:16 | 34.12558 | -116.08333 | 29861 ft | 389 kts | 261° |
| 2026-05-04 03:17 | 34.11917 | -116.14836 | 29873 ft | 390 kts | 261° |
| 2026-05-04 03:17 | 34.11275 | -116.21334 | 29859 ft | 390 kts | 261° |
| 2026-05-04 03:18 | 34.10626 | -116.27848 | 29839 ft | 391 kts | 261° |
| 2026-05-04 03:18 | 34.09956 | -116.34357 | 29818 ft | 391 kts | 260° |
| 2026-05-04 03:19 | 34.09271 | -116.40737 | 29789 ft | 367 kts | 260° |
| 2026-05-04 03:19 | 34.08950 | -116.43722 | 29793 ft | 353 kts | 260° |
| 2026-05-04 03:19 | 34.08634 | -116.46646 | 29798 ft | 351 kts | 260° |
| 2026-05-04 03:19 | 34.08317 | -116.49568 | 29559 ft | 353 kts | 261° |
| 2026-05-04 03:20 | 34.08003 | -116.52481 | 29195 ft | 347 kts | 261° |
| 2026-05-04 03:20 | 34.07694 | -116.55344 | 28759 ft | 340 kts | 261° |
| 2026-05-04 03:20 | 34.07393 | -116.58125 | 28201 ft | 337 kts | 261° |
| 2026-05-04 03:20 | 34.07105 | -116.60932 | 27594 ft | 337 kts | 262° |
| 2026-05-04 03:21 | 34.06843 | -116.63745 | 27053 ft | 336 kts | 262° |
| 2026-05-04 03:21 | 34.06592 | -116.66508 | 26511 ft | 328 kts | 262° |
| 2026-05-04 03:21 | 34.06342 | -116.69268 | 25873 ft | 333 kts | 262° |
| 2026-05-04 03:21 | 34.06089 | -116.72035 | 25390 ft | 332 kts | 262° |
| 2026-05-04 03:22 | 34.05833 | -116.74789 | 24923 ft | 330 kts | 262° |
| 2026-05-04 03:22 | 34.05577 | -116.77531 | 24490 ft | 328 kts | 261° |
| 2026-05-04 03:22 | 34.05322 | -116.80266 | 24047 ft | 327 kts | 262° |
| 2026-05-04 03:22 | 34.05067 | -116.82990 | 23605 ft | 328 kts | 262° |
| 2026-05-04 03:23 | 34.04808 | -116.85731 | 23113 ft | 327 kts | 261° |
| 2026-05-04 03:23 | 34.04551 | -116.88454 | 22677 ft | 325 kts | 261° |
| 2026-05-04 03:23 | 34.04252 | -116.91152 | 22193 ft | 324 kts | 259° |
| 2026-05-04 03:23 | 34.03895 | -116.93830 | 21782 ft | 322 kts | 259° |
| 2026-05-04 03:24 | 34.03540 | -116.96453 | 21389 ft | 320 kts | 259° |
| 2026-05-04 03:24 | 34.03190 | -116.99090 | 20997 ft | 317 kts | 259° |
| 2026-05-04 03:24 | 34.02847 | -117.01711 | 20555 ft | 316 kts | 259° |
| 2026-05-04 03:24 | 34.02513 | -117.04318 | 20196 ft | 313 kts | 259° |
| 2026-05-04 03:25 | 34.02204 | -117.06910 | 19814 ft | 311 kts | 259° |
| 2026-05-04 03:25 | 34.01904 | -117.09484 | 19429 ft | 309 kts | 259° |
| 2026-05-04 03:25 | 34.01605 | -117.12040 | 19037 ft | 307 kts | 259° |
| 2026-05-04 03:25 | 34.01305 | -117.14583 | 18644 ft | 306 kts | 259° |
| 2026-05-04 03:26 | 34.01005 | -117.17114 | 18264 ft | 304 kts | 259° |
| 2026-05-04 03:26 | 34.00705 | -117.19631 | 17784 ft | 303 kts | 259° |
| 2026-05-04 03:26 | 34.00406 | -117.22141 | 17268 ft | 303 kts | 259° |
| 2026-05-04 03:26 | 34.00103 | -117.24666 | 16719 ft | 306 kts | 259° |
| 2026-05-04 03:27 | 33.99798 | -117.27212 | 16276 ft | 306 kts | 259° |
| 2026-05-04 03:27 | 33.99494 | -117.29745 | 15851 ft | 305 kts | 259° |
| 2026-05-04 03:27 | 33.99191 | -117.32281 | 15395 ft | 306 kts | 259° |
| 2026-05-04 03:27 | 33.98891 | -117.34832 | 14938 ft | 308 kts | 259° |
| 2026-05-04 03:28 | 33.98592 | -117.37386 | 14484 ft | 309 kts | 259° |
| 2026-05-04 03:28 | 33.98291 | -117.39954 | 14038 ft | 310 kts | 259° |
| 2026-05-04 03:28 | 33.97991 | -117.42500 | 13576 ft | 311 kts | 259° |
| 2026-05-04 03:28 | 33.97684 | -117.45106 | 13177 ft | 309 kts | 259° |
| 2026-05-04 03:29 | 33.97394 | -117.47619 | 12809 ft | 307 kts | 261° |
| 2026-05-04 03:29 | 33.97515 | -117.50195 | 12380 ft | 312 kts | 279° |
| 2026-05-04 03:29 | 33.98086 | -117.52710 | 12049 ft | 310 kts | 282° |
| 2026-05-04 03:29 | 33.98688 | -117.55149 | 12004 ft | 297 kts | 282° |
| 2026-05-04 03:30 | 33.99265 | -117.57482 | 11958 ft | 285 kts | 282° |
| 2026-05-04 03:30 | 33.99815 | -117.59755 | 11669 ft | 282 kts | 282° |
| 2026-05-04 03:30 | 34.00370 | -117.62094 | 10865 ft | 298 kts | 282° |
| 2026-05-04 03:30 | 34.00940 | -117.64508 | 10510 ft | 298 kts | 282° |
| 2026-05-04 03:31 | 34.01497 | -117.66862 | 10426 ft | 287 kts | 282° |
| 2026-05-04 03:31 | 34.02023 | -117.69131 | 10347 ft | 275 kts | 279° |
| 2026-05-04 03:31 | 34.02107 | -117.71362 | 10196 ft | 262 kts | 261° |
| 2026-05-04 03:31 | 34.01882 | -117.73528 | 9944 ft | 260 kts | 261° |
| 2026-05-04 03:32 | 34.01657 | -117.75689 | 9575 ft | 261 kts | 261° |
| 2026-05-04 03:32 | 34.01434 | -117.77860 | 9210 ft | 262 kts | 261° |
| 2026-05-04 03:32 | 34.01217 | -117.80036 | 8948 ft | 259 kts | 261° |
| 2026-05-04 03:32 | 34.01012 | -117.82133 | 8915 ft | 244 kts | 261° |
| 2026-05-04 03:33 | 34.00820 | -117.84105 | 8797 ft | 230 kts | 261° |
| 2026-05-04 03:33 | 34.00638 | -117.85966 | 8689 ft | 217 kts | 261° |
| 2026-05-04 03:33 | 34.00466 | -117.87723 | 8574 ft | 205 kts | 261° |
| 2026-05-04 03:33 | 34.00300 | -117.89411 | 8308 ft | 201 kts | 261° |
| 2026-05-04 03:34 | 34.00135 | -117.91078 | 7973 ft | 201 kts | 262° |
| 2026-05-04 03:34 | 33.99971 | -117.92751 | 7647 ft | 200 kts | 262° |
| 2026-05-04 03:34 | 33.99807 | -117.94418 | 7314 ft | 200 kts | 262° |
| 2026-05-04 03:34 | 33.99645 | -117.96067 | 7068 ft | 196 kts | 262° |
| 2026-05-04 03:35 | 33.99483 | -117.97715 | 6678 ft | 199 kts | 263° |
| 2026-05-04 03:35 | 33.99321 | -117.99363 | 6412 ft | 196 kts | 263° |
| 2026-05-04 03:35 | 33.99156 | -118.01011 | 5999 ft | 198 kts | 263° |
| 2026-05-04 03:35 | 33.98993 | -118.02650 | 5678 ft | 199 kts | 263° |
| 2026-05-04 03:36 | 33.98829 | -118.04294 | 5448 ft | 194 kts | 262° |
| 2026-05-04 03:36 | 33.98669 | -118.05902 | 5154 ft | 193 kts | 262° |
| 2026-05-04 03:36 | 33.98509 | -118.07507 | 4830 ft | 194 kts | 262° |
| 2026-05-04 03:36 | 33.98348 | -118.09123 | 4535 ft | 193 kts | 262° |
| 2026-05-04 03:37 | 33.98192 | -118.10683 | 4328 ft | 187 kts | 262° |
| 2026-05-04 03:37 | 33.98039 | -118.12215 | 4104 ft | 181 kts | 262° |
| 2026-05-04 03:37 | 33.97891 | -118.13700 | 3922 ft | 177 kts | 262° |
| 2026-05-04 03:37 | 33.97744 | -118.15166 | 3741 ft | 176 kts | 262° |
| 2026-05-04 03:38 | 33.97599 | -118.16612 | 3592 ft | 169 kts | 263° |
| 2026-05-04 03:38 | 33.97465 | -118.17950 | 3425 ft | 155 kts | 262° |
| 2026-05-04 03:38 | 33.97339 | -118.19211 | 3240 ft | 150 kts | 262° |
| 2026-05-04 03:38 | 33.97215 | -118.20439 | 3079 ft | 146 kts | 263° |
| 2026-05-04 03:39 | 33.97095 | -118.21642 | 2937 ft | 144 kts | 263° |
| 2026-05-04 03:39 | 33.96973 | -118.22843 | 2792 ft | 145 kts | 263° |
| 2026-05-04 03:39 | 33.96851 | -118.24047 | 2632 ft | 144 kts | 262° |
| 2026-05-04 03:39 | 33.96733 | -118.25228 | 2508 ft | 141 kts | 264° |
| 2026-05-04 03:40 | 33.96623 | -118.26401 | 2418 ft | 143 kts | 263° |
| 2026-05-04 03:40 | 33.96503 | -118.27603 | 2234 ft | 145 kts | 263° |
| 2026-05-04 03:40 | 33.96379 | -118.28816 | 2045 ft | 147 kts | 263° |
| 2026-05-04 03:40 | 33.96253 | -118.30040 | 1839 ft | 146 kts | 263° |
| 2026-05-04 03:41 | 33.96129 | -118.31235 | 1629 ft | 141 kts | 263° |
| 2026-05-04 03:41 | 33.96011 | -118.32386 | 1463 ft | 139 kts | 263° |
| 2026-05-04 03:41 | 33.95890 | -118.33564 | 1271 ft | 142 kts | 263° |
| 2026-05-04 03:41 | 33.95770 | -118.34732 | 1062 ft | 141 kts | 263° |
| 2026-05-04 03:42 | 33.95650 | -118.35900 | 870 ft | 139 kts | 263° |
| 2026-05-04 03:42 | 33.95532 | -118.37051 | 672 ft | 138 kts | 262° |
| 2026-05-04 03:42 | 33.95415 | -118.38189 | 486 ft | 138 kts | 263° |
| 2026-05-04 03:42 | 33.95332 | -118.38960 | 301 ft | 141 kts | 263° |
| 2026-05-04 03:43 | 33.95179 | -118.40455 | 115 ft | 133 kts | 264° |
| 2026-05-04 03:43 | 33.95081 | -118.41443 | 107 ft | 99 kts | 263° |
| 2026-05-04 03:43 | 33.95017 | -118.42087 | 106 ft | 57 kts | 263° |
| 2026-05-04 03:43 | 33.94945 | -118.42516 | 104 ft | 40 kts | 245° |
| 2026-05-04 03:44 | 33.94855 | -118.42672 | 102 ft | 32 kts | 227° |
| 2026-05-04 03:44 | 33.94681 | -118.42776 | 104 ft | 18 kts | 176° |
| 2026-05-04 03:44 | 33.94639 | -118.42687 | 99 ft | 6 kts | 85° |
| 2026-05-04 03:44 | 33.94639 | -118.42686 | 99 ft | 0 kts | 85° |
| 2026-05-04 03:45 | 33.94640 | -118.42683 | 99 ft | 2 kts | 84° |
| 2026-05-04 03:45 | 33.94650 | -118.42589 | 99 ft | 20 kts | 83° |
| 2026-05-04 03:46 | 33.94668 | -118.42411 | 99 ft | 22 kts | 83° |
| 2026-05-04 03:46 | 33.94687 | -118.42233 | 101 ft | 21 kts | 85° |
| 2026-05-04 03:46 | 33.94702 | -118.42060 | 97 ft | 21 kts | 82° |
| 2026-05-04 03:46 | 33.94721 | -118.41892 | 97 ft | 20 kts | 84° |
| 2026-05-04 03:47 | 33.94736 | -118.41729 | 97 ft | 19 kts | 83° |
| 2026-05-04 03:47 | 33.94750 | -118.41571 | 99 ft | 19 kts | 83° |
| 2026-05-04 03:47 | 33.94769 | -118.41419 | 98 ft | 18 kts | 75° |
| 2026-05-04 03:47 | 33.94800 | -118.41276 | 99 ft | 17 kts | 90° |
| 2026-05-04 03:48 | 33.94808 | -118.41136 | 99 ft | 16 kts | 82° |
| 2026-05-04 03:48 | 33.94821 | -118.41003 | 100 ft | 16 kts | 84° |
| 2026-05-04 03:48 | 33.94835 | -118.40875 | 99 ft | 15 kts | 82° |
| 2026-05-04 03:48 | 33.94849 | -118.40753 | 99 ft | 14 kts | 82° |
| 2026-05-04 03:49 | 33.94860 | -118.40635 | 99 ft | 14 kts | 83° |
| 2026-05-04 03:49 | 33.94872 | -118.40523 | 99 ft | 13 kts | 82° |
| 2026-05-04 03:49 | 33.94884 | -118.40405 | 99 ft | 14 kts | 83° |
| 2026-05-04 03:49 | 33.94895 | -118.40300 | 99 ft | 9 kts | 82° |
| 2026-05-04 03:50 | 33.94902 | -118.40228 | 99 ft | 7 kts | 83° |
| 2026-05-04 03:50 | 33.94906 | -118.40188 | 97 ft | 4 kts | 82° |
| 2026-05-04 03:50 | 33.94909 | -118.40162 | 99 ft | 0 kts | 82° |
| 2026-05-04 03:50 | 33.94910 | -118.40159 | 99 ft | 0 kts | 81° |
| 2026-05-04 03:51 | 33.94913 | -118.40122 | 99 ft | 8 kts | 92° |
| 2026-05-04 03:51 | 33.94866 | -118.40079 | 97 ft | 10 kts | 151° |
| 2026-05-04 03:51 | 33.94823 | -118.40012 | 95 ft | 11 kts | 151° |
| 2026-05-04 03:51 | 33.94783 | -118.40013 | 94 ft | 3 kts | 225° |
| 2026-05-04 03:52 | 33.94775 | -118.40037 | 97 ft | 4 kts | 248° |
| 2026-05-04 03:52 | 33.94766 | -118.40059 | 95 ft | 1 kts | 244° |
| 2026-05-04 03:52 | 33.94764 | -118.40063 | 94 ft | 0 kts | 244° |